sensor_id;sensor_type;location;lat;lon;timestamp;temperature;humidity
25250;DHT22;13201;51.148;13.738;2022-08-03T00:01:29;20.50;99.90
25250;DHT22;13201;51.148;13.738;2022-08-03T00:03:55;20.50;99.90
25250;DHT22;13201;51.148;13.738;2022-08-03T00:06:21;20.50;99.90
25250;DHT22;13201;51.148;13.738;2022-08-03T00:08:46;20.60;99.90
25250;DHT22;13201;51.148;13.738;2022-08-03T00:11:12;20.20;99.90
25250;DHT22;13201;51.148;13.738;2022-08-03T00:13:37;20.30;99.90
25250;DHT22;13201;51.148;13.738;2022-08-03T00:16:04;20.30;99.90
25250;DHT22;13201;51.148;13.738;2022-08-03T00:18:29;20.30;99.90
25250;DHT22;13201;51.148;13.738;2022-08-03T00:20:55;20.20;99.90
25250;DHT22;13201;51.148;13.738;2022-08-03T00:23:21;20.30;99.90
25250;DHT22;13201;51.148;13.738;2022-08-03T00:25:46;20.20;99.90
25250;DHT22;13201;51.148;13.738;2022-08-03T00:28:12;20.00;99.90
25250;DHT22;13201;51.148;13.738;2022-08-03T00:30:37;20.10;99.90
25250;DHT22;13201;51.148;13.738;2022-08-03T00:33:03;20.00;99.90
25250;DHT22;13201;51.148;13.738;2022-08-03T00:35:29;20.10;99.90
25250;DHT22;13201;51.148;13.738;2022-08-03T00:37:55;20.00;99.90
25250;DHT22;13201;51.148;13.738;2022-08-03T00:40:21;20.00;99.90
25250;DHT22;13201;51.148;13.738;2022-08-03T00:42:48;20.00;99.90
25250;DHT22;13201;51.148;13.738;2022-08-03T00:45:16;20.00;99.90
25250;DHT22;13201;51.148;13.738;2022-08-03T00:47:43;19.80;99.90
25250;DHT22;13201;51.148;13.738;2022-08-03T00:50:09;19.80;99.90
25250;DHT22;13201;51.148;13.738;2022-08-03T00:52:35;19.70;99.90
25250;DHT22;13201;51.148;13.738;2022-08-03T00:55:02;19.90;99.90
25250;DHT22;13201;51.148;13.738;2022-08-03T00:57:29;19.80;99.90
25250;DHT22;13201;51.148;13.738;2022-08-03T00:59:56;19.80;99.90
25250;DHT22;13201;51.148;13.738;2022-08-03T01:02:22;19.80;99.90
25250;DHT22;13201;51.148;13.738;2022-08-03T01:04:47;19.90;99.90
25250;DHT22;13201;51.148;13.738;2022-08-03T01:32:48;18.50;99.90
25250;DHT22;13201;51.148;13.738;2022-08-03T01:35:24;18.30;99.90
25250;DHT22;13201;51.148;13.738;2022-08-03T01:38:12;18.20;99.90
25250;DHT22;13201;51.148;13.738;2022-08-03T01:40:39;18.10;99.90
25250;DHT22;13201;51.148;13.738;2022-08-03T01:43:07;18.30;99.90
25250;DHT22;13201;51.148;13.738;2022-08-03T01:45:35;18.50;99.90
25250;DHT22;13201;51.148;13.738;2022-08-03T01:48:02;18.50;99.90
25250;DHT22;13201;51.148;13.738;2022-08-03T01:50:30;18.60;99.90
25250;DHT22;13201;51.148;13.738;2022-08-03T01:52:57;18.60;99.90
25250;DHT22;13201;51.148;13.738;2022-08-03T01:55:24;18.70;99.90
25250;DHT22;13201;51.148;13.738;2022-08-03T01:57:53;18.70;99.90
25250;DHT22;13201;51.148;13.738;2022-08-03T02:00:20;18.80;99.90
25250;DHT22;13201;51.148;13.738;2022-08-03T02:02:48;18.90;99.90
25250;DHT22;13201;51.148;13.738;2022-08-03T02:05:15;18.90;99.90
25250;DHT22;13201;51.148;13.738;2022-08-03T02:07:44;19.00;99.90
25250;DHT22;13201;51.148;13.738;2022-08-03T02:10:12;19.00;99.90
25250;DHT22;13201;51.148;13.738;2022-08-03T02:12:39;18.80;99.90
25250;DHT22;13201;51.148;13.738;2022-08-03T02:15:07;18.90;99.90
25250;DHT22;13201;51.148;13.738;2022-08-03T02:17:34;18.90;99.90
25250;DHT22;13201;51.148;13.738;2022-08-03T02:20:02;18.90;99.90
25250;DHT22;13201;51.148;13.738;2022-08-03T02:22:28;18.90;99.90
25250;DHT22;13201;51.148;13.738;2022-08-03T02:24:55;19.00;99.90
25250;DHT22;13201;51.148;13.738;2022-08-03T02:27:24;18.90;99.90
25250;DHT22;13201;51.148;13.738;2022-08-03T02:29:59;18.90;99.90
25250;DHT22;13201;51.148;13.738;2022-08-03T02:32:31;18.90;99.90
25250;DHT22;13201;51.148;13.738;2022-08-03T02:34:59;18.90;99.90
25250;DHT22;13201;51.148;13.738;2022-08-03T02:37:31;18.90;99.90
25250;DHT22;13201;51.148;13.738;2022-08-03T02:40:01;18.90;99.90
25250;DHT22;13201;51.148;13.738;2022-08-03T02:42:28;18.90;99.90
25250;DHT22;13201;51.148;13.738;2022-08-03T02:44:58;18.80;99.90
25250;DHT22;13201;51.148;13.738;2022-08-03T02:47:26;18.90;99.90
25250;DHT22;13201;51.148;13.738;2022-08-03T02:49:53;18.90;99.90
25250;DHT22;13201;51.148;13.738;2022-08-03T02:52:23;18.80;99.90
25250;DHT22;13201;51.148;13.738;2022-08-03T02:54:53;18.90;99.90
25250;DHT22;13201;51.148;13.738;2022-08-03T02:57:20;19.00;99.90
25250;DHT22;13201;51.148;13.738;2022-08-03T02:59:48;18.90;99.90
25250;DHT22;13201;51.148;13.738;2022-08-03T03:02:15;18.90;99.90
25250;DHT22;13201;51.148;13.738;2022-08-03T03:04:43;18.90;99.90
25250;DHT22;13201;51.148;13.738;2022-08-03T03:07:11;18.90;99.90
25250;DHT22;13201;51.148;13.738;2022-08-03T03:09:37;19.00;99.90
25250;DHT22;13201;51.148;13.738;2022-08-03T03:12:03;18.90;99.90
25250;DHT22;13201;51.148;13.738;2022-08-03T03:14:31;18.90;99.90
25250;DHT22;13201;51.148;13.738;2022-08-03T03:16:57;18.90;99.90
25250;DHT22;13201;51.148;13.738;2022-08-03T03:19:23;18.90;99.90
25250;DHT22;13201;51.148;13.738;2022-08-03T03:21:50;18.80;99.90
25250;DHT22;13201;51.148;13.738;2022-08-03T03:24:16;18.90;99.90
25250;DHT22;13201;51.148;13.738;2022-08-03T03:26:42;18.90;99.90
25250;DHT22;13201;51.148;13.738;2022-08-03T03:29:09;18.70;99.90
25250;DHT22;13201;51.148;13.738;2022-08-03T03:31:34;18.80;99.90
25250;DHT22;13201;51.148;13.738;2022-08-03T03:34:01;18.80;99.90
25250;DHT22;13201;51.148;13.738;2022-08-03T03:36:27;18.80;99.90
25250;DHT22;13201;51.148;13.738;2022-08-03T03:38:52;18.80;99.90
25250;DHT22;13201;51.148;13.738;2022-08-03T03:41:18;18.70;99.90
25250;DHT22;13201;51.148;13.738;2022-08-03T03:43:44;18.80;99.90
25250;DHT22;13201;51.148;13.738;2022-08-03T03:46:13;18.70;99.90
25250;DHT22;13201;51.148;13.738;2022-08-03T03:48:38;18.60;99.90
25250;DHT22;13201;51.148;13.738;2022-08-03T03:51:04;18.30;99.90
25250;DHT22;13201;51.148;13.738;2022-08-03T03:53:31;18.60;99.90
25250;DHT22;13201;51.148;13.738;2022-08-03T03:55:57;18.60;99.90
25250;DHT22;13201;51.148;13.738;2022-08-03T03:58:22;18.60;99.90
25250;DHT22;13201;51.148;13.738;2022-08-03T04:00:48;18.70;99.90
25250;DHT22;13201;51.148;13.738;2022-08-03T04:03:14;18.70;99.90
25250;DHT22;13201;51.148;13.738;2022-08-03T04:05:39;18.70;99.90
25250;DHT22;13201;51.148;13.738;2022-08-03T04:08:24;18.70;99.90
25250;DHT22;13201;51.148;13.738;2022-08-03T04:13:49;18.70;99.90
25250;DHT22;13201;51.148;13.738;2022-08-03T04:16:17;18.70;99.90
25250;DHT22;13201;51.148;13.738;2022-08-03T04:18:50;18.70;99.90
25250;DHT22;13201;51.148;13.738;2022-08-03T04:21:18;18.70;99.90
25250;DHT22;13201;51.148;13.738;2022-08-03T04:23:47;18.80;99.90
25250;DHT22;13201;51.148;13.738;2022-08-03T04:26:17;18.90;99.90
25250;DHT22;13201;51.148;13.738;2022-08-03T04:28:44;18.90;99.90
25250;DHT22;13201;51.148;13.738;2022-08-03T04:31:12;19.00;99.90
25250;DHT22;13201;51.148;13.738;2022-08-03T04:33:40;18.90;99.90
25250;DHT22;13201;51.148;13.738;2022-08-03T04:36:10;19.10;99.90
25250;DHT22;13201;51.148;13.738;2022-08-03T04:41:15;19.10;99.90
25250;DHT22;13201;51.148;13.738;2022-08-03T04:43:41;19.30;99.90
25250;DHT22;13201;51.148;13.738;2022-08-03T04:46:08;19.30;99.90
25250;DHT22;13201;51.148;13.738;2022-08-03T04:48:34;19.30;99.90
25250;DHT22;13201;51.148;13.738;2022-08-03T04:51:00;19.30;99.90
25250;DHT22;13201;51.148;13.738;2022-08-03T04:53:29;19.30;99.90
25250;DHT22;13201;51.148;13.738;2022-08-03T04:55:54;19.30;99.90
25250;DHT22;13201;51.148;13.738;2022-08-03T04:58:20;19.50;99.90
25250;DHT22;13201;51.148;13.738;2022-08-03T05:00:45;19.50;99.90
25250;DHT22;13201;51.148;13.738;2022-08-03T05:03:15;19.60;99.90
25250;DHT22;13201;51.148;13.738;2022-08-03T05:05:41;19.60;99.90
25250;DHT22;13201;51.148;13.738;2022-08-03T05:08:06;19.60;99.90
25250;DHT22;13201;51.148;13.738;2022-08-03T05:10:32;19.70;99.90
25250;DHT22;13201;51.148;13.738;2022-08-03T05:12:57;19.70;99.90
25250;DHT22;13201;51.148;13.738;2022-08-03T05:15:23;19.80;99.90
25250;DHT22;13201;51.148;13.738;2022-08-03T05:17:48;19.90;99.90
25250;DHT22;13201;51.148;13.738;2022-08-03T05:20:14;19.90;99.90
25250;DHT22;13201;51.148;13.738;2022-08-03T05:22:40;20.00;99.90
25250;DHT22;13201;51.148;13.738;2022-08-03T05:25:06;20.10;99.90
25250;DHT22;13201;51.148;13.738;2022-08-03T05:27:31;20.20;99.90
25250;DHT22;13201;51.148;13.738;2022-08-03T05:29:57;20.30;99.90
25250;DHT22;13201;51.148;13.738;2022-08-03T05:32:23;20.30;99.90
25250;DHT22;13201;51.148;13.738;2022-08-03T05:34:48;20.60;99.90
25250;DHT22;13201;51.148;13.738;2022-08-03T05:37:14;20.70;99.90
25250;DHT22;13201;51.148;13.738;2022-08-03T05:39:40;20.80;99.90
25250;DHT22;13201;51.148;13.738;2022-08-03T05:42:05;21.00;99.90
25250;DHT22;13201;51.148;13.738;2022-08-03T05:44:31;21.10;99.90
25250;DHT22;13201;51.148;13.738;2022-08-03T05:46:57;21.20;99.90
25250;DHT22;13201;51.148;13.738;2022-08-03T05:49:23;21.40;99.90
25250;DHT22;13201;51.148;13.738;2022-08-03T05:51:49;21.50;99.90
25250;DHT22;13201;51.148;13.738;2022-08-03T05:54:14;21.60;99.90
25250;DHT22;13201;51.148;13.738;2022-08-03T05:56:40;21.70;99.90
25250;DHT22;13201;51.148;13.738;2022-08-03T05:59:06;21.90;99.90
25250;DHT22;13201;51.148;13.738;2022-08-03T06:01:32;22.00;99.90
25250;DHT22;13201;51.148;13.738;2022-08-03T06:03:58;22.20;99.90
25250;DHT22;13201;51.148;13.738;2022-08-03T06:06:24;22.20;99.90
25250;DHT22;13201;51.148;13.738;2022-08-03T06:08:49;22.20;99.90
25250;DHT22;13201;51.148;13.738;2022-08-03T06:11:15;22.40;99.90
25250;DHT22;13201;51.148;13.738;2022-08-03T06:13:41;22.50;99.90
25250;DHT22;13201;51.148;13.738;2022-08-03T06:16:07;22.60;99.90
25250;DHT22;13201;51.148;13.738;2022-08-03T06:18:33;22.70;99.90
25250;DHT22;13201;51.148;13.738;2022-08-03T06:20:59;22.70;99.90
25250;DHT22;13201;51.148;13.738;2022-08-03T06:23:25;23.10;99.90
25250;DHT22;13201;51.148;13.738;2022-08-03T06:25:50;23.00;99.90
25250;DHT22;13201;51.148;13.738;2022-08-03T06:28:16;23.20;99.90
25250;DHT22;13201;51.148;13.738;2022-08-03T06:30:43;23.30;99.90
25250;DHT22;13201;51.148;13.738;2022-08-03T06:33:09;23.50;99.90
25250;DHT22;13201;51.148;13.738;2022-08-03T06:35:34;23.70;99.90
25250;DHT22;13201;51.148;13.738;2022-08-03T06:38:00;23.80;99.90
25250;DHT22;13201;51.148;13.738;2022-08-03T06:40:26;23.70;99.90
25250;DHT22;13201;51.148;13.738;2022-08-03T06:42:57;23.90;99.90
25250;DHT22;13201;51.148;13.738;2022-08-03T06:45:23;23.90;99.90
25250;DHT22;13201;51.148;13.738;2022-08-03T06:48:05;24.00;99.90
25250;DHT22;13201;51.148;13.738;2022-08-03T06:50:32;24.10;99.90
25250;DHT22;13201;51.148;13.738;2022-08-03T06:53:00;24.10;99.90
25250;DHT22;13201;51.148;13.738;2022-08-03T06:55:25;24.20;99.90
25250;DHT22;13201;51.148;13.738;2022-08-03T06:57:51;24.30;99.90
25250;DHT22;13201;51.148;13.738;2022-08-03T07:00:17;24.40;99.90
25250;DHT22;13201;51.148;13.738;2022-08-03T07:02:43;24.30;99.90
25250;DHT22;13201;51.148;13.738;2022-08-03T07:05:09;24.30;99.90
25250;DHT22;13201;51.148;13.738;2022-08-03T07:07:36;24.50;99.90
25250;DHT22;13201;51.148;13.738;2022-08-03T07:10:03;24.80;99.90
25250;DHT22;13201;51.148;13.738;2022-08-03T07:12:30;24.90;99.90
25250;DHT22;13201;51.148;13.738;2022-08-03T07:14:57;24.80;99.90
25250;DHT22;13201;51.148;13.738;2022-08-03T07:17:23;25.00;99.90
25250;DHT22;13201;51.148;13.738;2022-08-03T07:19:48;25.00;99.90
25250;DHT22;13201;51.148;13.738;2022-08-03T07:22:14;25.10;99.90
25250;DHT22;13201;51.148;13.738;2022-08-03T07:24:40;25.10;99.90
25250;DHT22;13201;51.148;13.738;2022-08-03T07:27:09;25.10;99.90
25250;DHT22;13201;51.148;13.738;2022-08-03T07:29:35;25.30;99.90
25250;DHT22;13201;51.148;13.738;2022-08-03T07:32:03;25.30;99.90
25250;DHT22;13201;51.148;13.738;2022-08-03T07:34:29;25.40;99.90
25250;DHT22;13201;51.148;13.738;2022-08-03T07:36:55;25.50;99.90
25250;DHT22;13201;51.148;13.738;2022-08-03T07:39:20;25.70;99.90
25250;DHT22;13201;51.148;13.738;2022-08-03T07:41:46;25.70;99.90
25250;DHT22;13201;51.148;13.738;2022-08-03T07:44:12;26.10;99.90
25250;DHT22;13201;51.148;13.738;2022-08-03T07:46:38;26.00;99.90
25250;DHT22;13201;51.148;13.738;2022-08-03T07:49:04;26.10;99.90
25250;DHT22;13201;51.148;13.738;2022-08-03T07:51:29;26.10;99.90
25250;DHT22;13201;51.148;13.738;2022-08-03T07:53:55;26.30;99.90
25250;DHT22;13201;51.148;13.738;2022-08-03T07:56:22;26.70;99.90
25250;DHT22;13201;51.148;13.738;2022-08-03T07:58:50;26.70;99.90
25250;DHT22;13201;51.148;13.738;2022-08-03T08:01:16;26.60;99.90
25250;DHT22;13201;51.148;13.738;2022-08-03T08:03:46;26.80;99.90
25250;DHT22;13201;51.148;13.738;2022-08-03T08:06:12;26.90;99.90
25250;DHT22;13201;51.148;13.738;2022-08-03T08:08:38;26.90;99.90
25250;DHT22;13201;51.148;13.738;2022-08-03T08:11:05;26.80;99.90
25250;DHT22;13201;51.148;13.738;2022-08-03T08:13:31;27.00;99.90
25250;DHT22;13201;51.148;13.738;2022-08-03T08:15:57;27.10;99.90
25250;DHT22;13201;51.148;13.738;2022-08-03T08:18:23;27.00;99.90
25250;DHT22;13201;51.148;13.738;2022-08-03T08:20:49;27.10;99.90
25250;DHT22;13201;51.148;13.738;2022-08-03T08:23:15;27.30;99.90
25250;DHT22;13201;51.148;13.738;2022-08-03T08:25:47;27.30;99.90
25250;DHT22;13201;51.148;13.738;2022-08-03T08:28:13;27.30;99.90
25250;DHT22;13201;51.148;13.738;2022-08-03T08:30:39;27.40;99.90
25250;DHT22;13201;51.148;13.738;2022-08-03T08:33:04;27.50;99.90
25250;DHT22;13201;51.148;13.738;2022-08-03T08:35:30;27.70;99.90
25250;DHT22;13201;51.148;13.738;2022-08-03T08:37:55;27.80;99.90
25250;DHT22;13201;51.148;13.738;2022-08-03T08:40:24;27.80;99.80
25250;DHT22;13201;51.148;13.738;2022-08-03T08:42:50;27.80;99.80
25250;DHT22;13201;51.148;13.738;2022-08-03T08:45:16;28.00;99.90
25250;DHT22;13201;51.148;13.738;2022-08-03T08:47:46;28.00;99.40
25250;DHT22;13201;51.148;13.738;2022-08-03T08:50:12;28.30;99.90
25250;DHT22;13201;51.148;13.738;2022-08-03T08:52:42;28.30;99.30
25250;DHT22;13201;51.148;13.738;2022-08-03T08:55:13;28.50;99.40
25250;DHT22;13201;51.148;13.738;2022-08-03T08:57:48;28.60;99.40
25250;DHT22;13201;51.148;13.738;2022-08-03T09:00:14;28.60;98.80
25250;DHT22;13201;51.148;13.738;2022-08-03T09:02:41;28.80;98.90
25250;DHT22;13201;51.148;13.738;2022-08-03T09:05:15;29.00;98.90
25250;DHT22;13201;51.148;13.738;2022-08-03T09:07:42;29.20;98.50
25250;DHT22;13201;51.148;13.738;2022-08-03T09:10:11;29.40;99.10
25250;DHT22;13201;51.148;13.738;2022-08-03T09:12:38;29.50;98.80
25250;DHT22;13201;51.148;13.738;2022-08-03T09:15:17;29.50;98.20
25250;DHT22;13201;51.148;13.738;2022-08-03T09:17:43;29.40;98.10
25250;DHT22;13201;51.148;13.738;2022-08-03T09:20:09;29.30;97.50
25250;DHT22;13201;51.148;13.738;2022-08-03T09:22:35;29.50;97.70
25250;DHT22;13201;51.148;13.738;2022-08-03T09:25:14;29.70;97.50
25250;DHT22;13201;51.148;13.738;2022-08-03T09:27:44;29.90;97.30
25250;DHT22;13201;51.148;13.738;2022-08-03T09:30:17;29.90;97.50
25250;DHT22;13201;51.148;13.738;2022-08-03T09:32:43;29.90;97.20
25250;DHT22;13201;51.148;13.738;2022-08-03T09:35:11;30.10;97.10
25250;DHT22;13201;51.148;13.738;2022-08-03T09:37:38;30.30;97.10
25250;DHT22;13201;51.148;13.738;2022-08-03T09:40:04;30.50;97.00
25250;DHT22;13201;51.148;13.738;2022-08-03T09:42:30;30.40;96.70
25250;DHT22;13201;51.148;13.738;2022-08-03T09:44:55;30.70;96.30
25250;DHT22;13201;51.148;13.738;2022-08-03T09:47:34;30.80;96.10
25250;DHT22;13201;51.148;13.738;2022-08-03T09:50:05;30.70;95.90
25250;DHT22;13201;51.148;13.738;2022-08-03T09:52:36;30.80;95.80
25250;DHT22;13201;51.148;13.738;2022-08-03T09:55:12;30.90;95.70
25250;DHT22;13201;51.148;13.738;2022-08-03T09:57:39;31.00;95.90
25250;DHT22;13201;51.148;13.738;2022-08-03T10:00:12;31.20;95.70
25250;DHT22;13201;51.148;13.738;2022-08-03T10:02:41;31.40;95.40
25250;DHT22;13201;51.148;13.738;2022-08-03T10:05:09;31.20;95.10
25250;DHT22;13201;51.148;13.738;2022-08-03T10:07:46;31.40;95.20
25250;DHT22;13201;51.148;13.738;2022-08-03T10:10:13;31.50;94.10
25250;DHT22;13201;51.148;13.738;2022-08-03T10:12:40;31.60;93.90
25250;DHT22;13201;51.148;13.738;2022-08-03T10:15:07;31.70;94.30
25250;DHT22;13201;51.148;13.738;2022-08-03T10:17:33;31.70;93.40
25250;DHT22;13201;51.148;13.738;2022-08-03T10:19:58;31.90;93.30
25250;DHT22;13201;51.148;13.738;2022-08-03T10:22:34;32.10;93.30
25250;DHT22;13201;51.148;13.738;2022-08-03T10:27:37;31.90;91.20
25250;DHT22;13201;51.148;13.738;2022-08-03T10:30:05;31.70;91.40
25250;DHT22;13201;51.148;13.738;2022-08-03T10:32:42;31.80;91.30
25250;DHT22;13201;51.148;13.738;2022-08-03T10:35:12;32.20;92.10
25250;DHT22;13201;51.148;13.738;2022-08-03T10:37:43;32.10;91.70
25250;DHT22;13201;51.148;13.738;2022-08-03T10:40:13;32.40;92.70
25250;DHT22;13201;51.148;13.738;2022-08-03T10:42:42;32.60;92.20
25250;DHT22;13201;51.148;13.738;2022-08-03T10:45:14;32.50;91.60
25250;DHT22;13201;51.148;13.738;2022-08-03T10:47:42;32.40;91.50
25250;DHT22;13201;51.148;13.738;2022-08-03T10:50:09;32.50;91.50
25250;DHT22;13201;51.148;13.738;2022-08-03T10:52:35;32.30;91.40
25250;DHT22;13201;51.148;13.738;2022-08-03T10:55:01;32.40;91.00
25250;DHT22;13201;51.148;13.738;2022-08-03T10:57:54;32.50;91.60
25250;DHT22;13201;51.148;13.738;2022-08-03T11:00:22;32.90;91.40
25250;DHT22;13201;51.148;13.738;2022-08-03T11:03:10;32.90;90.80
25250;DHT22;13201;51.148;13.738;2022-08-03T11:05:46;33.10;91.50
25250;DHT22;13201;51.148;13.738;2022-08-03T11:08:29;33.10;91.40
25250;DHT22;13201;51.148;13.738;2022-08-03T11:11:01;33.50;91.30
25250;DHT22;13201;51.148;13.738;2022-08-03T11:13:29;33.90;91.00
25250;DHT22;13201;51.148;13.738;2022-08-03T11:15:59;33.70;89.40
25250;DHT22;13201;51.148;13.738;2022-08-03T11:18:26;33.60;87.20
25250;DHT22;13201;51.148;13.738;2022-08-03T11:20:56;33.40;87.90
25250;DHT22;13201;51.148;13.738;2022-08-03T11:23:47;33.60;87.00
25250;DHT22;13201;51.148;13.738;2022-08-03T11:28:40;33.80;85.90
25250;DHT22;13201;51.148;13.738;2022-08-03T11:34:06;34.10;83.30
25250;DHT22;13201;51.148;13.738;2022-08-03T11:44:58;34.30;79.00
25250;DHT22;13201;51.148;13.738;2022-08-03T11:47:26;34.70;81.10
25250;DHT22;13201;51.148;13.738;2022-08-03T11:49:55;34.80;80.10
25250;DHT22;13201;51.148;13.738;2022-08-03T11:52:22;34.10;80.20
25250;DHT22;13201;51.148;13.738;2022-08-03T11:54:52;34.10;82.00
25250;DHT22;13201;51.148;13.738;2022-08-03T11:57:31;34.20;81.20
25250;DHT22;13201;51.148;13.738;2022-08-03T11:59:57;34.40;82.00
25250;DHT22;13201;51.148;13.738;2022-08-03T12:02:23;34.50;80.70
25250;DHT22;13201;51.148;13.738;2022-08-03T12:04:58;34.30;81.00
25250;DHT22;13201;51.148;13.738;2022-08-03T12:07:29;34.20;80.80
25250;DHT22;13201;51.148;13.738;2022-08-03T12:10:13;34.60;80.70
25250;DHT22;13201;51.148;13.738;2022-08-03T12:12:40;34.90;80.20
25250;DHT22;13201;51.148;13.738;2022-08-03T12:15:07;34.80;80.00
25250;DHT22;13201;51.148;13.738;2022-08-03T12:17:38;35.20;79.40
25250;DHT22;13201;51.148;13.738;2022-08-03T12:20:07;35.50;78.70
25250;DHT22;13201;51.148;13.738;2022-08-03T12:22:34;35.50;76.70
25250;DHT22;13201;51.148;13.738;2022-08-03T12:25:00;35.70;77.50
25250;DHT22;13201;51.148;13.738;2022-08-03T12:27:26;35.90;76.80
25250;DHT22;13201;51.148;13.738;2022-08-03T12:29:55;35.90;75.00
25250;DHT22;13201;51.148;13.738;2022-08-03T12:32:21;35.80;75.10
25250;DHT22;13201;51.148;13.738;2022-08-03T12:34:48;35.80;73.40
25250;DHT22;13201;51.148;13.738;2022-08-03T12:37:20;35.60;74.10
25250;DHT22;13201;51.148;13.738;2022-08-03T12:39:54;35.90;73.40
25250;DHT22;13201;51.148;13.738;2022-08-03T12:42:20;36.00;72.10
25250;DHT22;13201;51.148;13.738;2022-08-03T12:44:46;36.10;71.80
25250;DHT22;13201;51.148;13.738;2022-08-03T12:47:13;36.10;72.70
25250;DHT22;13201;51.148;13.738;2022-08-03T12:49:47;36.30;71.50
25250;DHT22;13201;51.148;13.738;2022-08-03T12:52:15;36.60;72.80
25250;DHT22;13201;51.148;13.738;2022-08-03T12:54:41;36.10;72.00
25250;DHT22;13201;51.148;13.738;2022-08-03T12:57:12;35.90;71.50
25250;DHT22;13201;51.148;13.738;2022-08-03T12:59:40;36.10;71.00
25250;DHT22;13201;51.148;13.738;2022-08-03T13:02:24;36.10;72.00
25250;DHT22;13201;51.148;13.738;2022-08-03T13:04:51;36.50;70.60
25250;DHT22;13201;51.148;13.738;2022-08-03T13:07:18;36.10;71.30
25250;DHT22;13201;51.148;13.738;2022-08-03T13:09:47;36.60;70.80
25250;DHT22;13201;51.148;13.738;2022-08-03T13:12:17;36.50;69.00
25250;DHT22;13201;51.148;13.738;2022-08-03T13:14:46;36.60;69.80
25250;DHT22;13201;51.148;13.738;2022-08-03T13:17:11;36.40;70.10
25250;DHT22;13201;51.148;13.738;2022-08-03T13:19:38;35.80;68.50
25250;DHT22;13201;51.148;13.738;2022-08-03T13:24:44;36.70;68.90
25250;DHT22;13201;51.148;13.738;2022-08-03T13:27:11;37.40;67.50
25250;DHT22;13201;51.148;13.738;2022-08-03T13:29:37;37.50;67.00
25250;DHT22;13201;51.148;13.738;2022-08-03T13:32:04;37.10;67.70
25250;DHT22;13201;51.148;13.738;2022-08-03T13:34:30;37.10;66.60
25250;DHT22;13201;51.148;13.738;2022-08-03T13:36:56;37.10;66.40
25250;DHT22;13201;51.148;13.738;2022-08-03T13:39:21;37.60;67.50
25250;DHT22;13201;51.148;13.738;2022-08-03T13:41:48;37.90;66.10
25250;DHT22;13201;51.148;13.738;2022-08-03T13:44:14;37.40;65.90
25250;DHT22;13201;51.148;13.738;2022-08-03T13:46:40;37.60;66.00
25250;DHT22;13201;51.148;13.738;2022-08-03T13:49:06;37.90;65.80
25250;DHT22;13201;51.148;13.738;2022-08-03T13:51:32;37.60;65.00
25250;DHT22;13201;51.148;13.738;2022-08-03T13:53:57;37.80;64.90
25250;DHT22;13201;51.148;13.738;2022-08-03T13:56:24;37.80;64.40
25250;DHT22;13201;51.148;13.738;2022-08-03T13:58:50;37.90;64.50
25250;DHT22;13201;51.148;13.738;2022-08-03T14:01:15;38.30;63.90
25250;DHT22;13201;51.148;13.738;2022-08-03T14:03:41;37.50;63.50
25250;DHT22;13201;51.148;13.738;2022-08-03T14:06:07;37.70;61.30
25250;DHT22;13201;51.148;13.738;2022-08-03T14:08:33;37.90;61.40
25250;DHT22;13201;51.148;13.738;2022-08-03T14:10:58;37.60;60.80
25250;DHT22;13201;51.148;13.738;2022-08-03T14:13:24;37.80;61.70
25250;DHT22;13201;51.148;13.738;2022-08-03T14:15:50;37.70;62.00
25250;DHT22;13201;51.148;13.738;2022-08-03T14:18:19;38.10;60.80
25250;DHT22;13201;51.148;13.738;2022-08-03T14:20:45;38.30;60.40
25250;DHT22;13201;51.148;13.738;2022-08-03T14:23:11;38.60;60.50
25250;DHT22;13201;51.148;13.738;2022-08-03T14:25:37;38.90;60.10
25250;DHT22;13201;51.148;13.738;2022-08-03T14:28:03;38.80;60.20
25250;DHT22;13201;51.148;13.738;2022-08-03T14:30:30;39.20;60.50
25250;DHT22;13201;51.148;13.738;2022-08-03T14:32:55;39.00;59.20
25250;DHT22;13201;51.148;13.738;2022-08-03T14:35:21;38.90;59.10
25250;DHT22;13201;51.148;13.738;2022-08-03T14:37:47;38.80;59.70
25250;DHT22;13201;51.148;13.738;2022-08-03T14:40:12;38.90;59.00
25250;DHT22;13201;51.148;13.738;2022-08-03T14:42:38;39.20;59.30
25250;DHT22;13201;51.148;13.738;2022-08-03T14:45:04;38.60;59.00
25250;DHT22;13201;51.148;13.738;2022-08-03T14:47:30;39.10;58.60
25250;DHT22;13201;51.148;13.738;2022-08-03T14:49:56;39.10;58.90
25250;DHT22;13201;51.148;13.738;2022-08-03T14:52:21;38.90;57.90
25250;DHT22;13201;51.148;13.738;2022-08-03T14:54:47;39.20;58.40
25250;DHT22;13201;51.148;13.738;2022-08-03T14:57:13;38.70;58.00
25250;DHT22;13201;51.148;13.738;2022-08-03T14:59:38;39.30;57.90
25250;DHT22;13201;51.148;13.738;2022-08-03T15:02:04;39.30;57.50
25250;DHT22;13201;51.148;13.738;2022-08-03T15:04:29;39.50;57.10
25250;DHT22;13201;51.148;13.738;2022-08-03T15:06:55;40.00;57.30
25250;DHT22;13201;51.148;13.738;2022-08-03T15:09:21;40.10;57.20
25250;DHT22;13201;51.148;13.738;2022-08-03T15:11:46;39.40;56.60
25250;DHT22;13201;51.148;13.738;2022-08-03T15:14:12;39.90;56.80
25250;DHT22;13201;51.148;13.738;2022-08-03T15:16:38;40.00;55.60
25250;DHT22;13201;51.148;13.738;2022-08-03T15:19:04;39.70;55.90
25250;DHT22;13201;51.148;13.738;2022-08-03T15:21:30;40.30;56.40
25250;DHT22;13201;51.148;13.738;2022-08-03T15:23:56;39.80;55.60
25250;DHT22;13201;51.148;13.738;2022-08-03T15:26:21;40.10;56.90
25250;DHT22;13201;51.148;13.738;2022-08-03T15:28:47;39.90;55.70
25250;DHT22;13201;51.148;13.738;2022-08-03T15:31:12;40.70;55.80
25250;DHT22;13201;51.148;13.738;2022-08-03T15:33:38;40.60;55.20
25250;DHT22;13201;51.148;13.738;2022-08-03T15:36:04;39.90;54.50
25250;DHT22;13201;51.148;13.738;2022-08-03T15:38:30;40.40;54.60
25250;DHT22;13201;51.148;13.738;2022-08-03T15:40:55;40.70;54.70
25250;DHT22;13201;51.148;13.738;2022-08-03T15:43:23;40.60;55.10
25250;DHT22;13201;51.148;13.738;2022-08-03T15:45:49;41.30;54.90
25250;DHT22;13201;51.148;13.738;2022-08-03T15:48:15;41.50;54.10
25250;DHT22;13201;51.148;13.738;2022-08-03T15:50:40;40.90;54.10
25250;DHT22;13201;51.148;13.738;2022-08-03T15:53:06;41.40;54.40
25250;DHT22;13201;51.148;13.738;2022-08-03T15:55:32;41.70;53.80
25250;DHT22;13201;51.148;13.738;2022-08-03T15:57:58;41.20;53.70
25250;DHT22;13201;51.148;13.738;2022-08-03T16:00:23;41.30;54.50
25250;DHT22;13201;51.148;13.738;2022-08-03T16:02:49;40.50;53.90
25250;DHT22;13201;51.148;13.738;2022-08-03T16:05:15;40.80;54.40
25250;DHT22;13201;51.148;13.738;2022-08-03T16:07:40;40.70;53.90